Latest Weather Observations for South Channel Island

IDV60901

Issued at 12:51 am EDT Thursday 28 January 2021 (issued every 10 minutes, with the page automatically refreshed every 10 minutes)

About weather observations | Map of Melbourne area stations | Latest observations for Melbourne area | Other Formats
Station Details ID: 086344 Name: SOUTH CHANNEL ISLAND Lat: -38.31 Lon: 144.80 Height: 9.0 m
Data from the previous 72 hours. | See also: Recent months at South Channel Island
Date/Time
EDT
Temp
°C
App
Temp
°C
Dew
Point
°C
Rel
Hum
%
Delta-T
°C
Wind Press
QNH
hPa
Press
MSL
hPa
Rain since
9am
mm
Dir  Spd
km/h
Gust
km/h
Spd
kts
Gust
kts
28/12:41am - - - - - E 59 78 32 42 - - -
28/12:30am - - - - - E 59 74 32 40 - - -
28/12:17am - - - - - E 56 74 30 40 - - -
28/12:00am - - - - - E 54 67 29 36 - - -
 
Date/Time
EDT
Temp
°C
App
Temp
°C
Dew
Point
°C
Rel
Hum
%
Delta-T
°C
Wind Press
QNH
hPa
Press
MSL
hPa
Rain since
9am
mm
Dir  Spd
km/h
Gust
km/h
Spd
kts
Gust
kts
27/11:48pm - - - - - E 52 70 28 38 - - -
27/11:30pm - - - - - ESE 48 59 26 32 - - -
27/11:00pm - - - - - ESE 50 63 27 34 - - -
27/10:30pm - - - - - ESE 52 67 28 36 - - -
27/10:00pm - - - - - ESE 48 61 26 33 - - -
27/09:30pm - - - - - ESE 41 54 22 29 - - -
27/09:04pm - - - - - ESE 50 69 27 37 - - -
27/09:00pm - - - - - E 54 69 29 37 - - -
27/08:30pm - - - - - ESE 44 54 24 29 - - -
27/08:00pm - - - - - ESE 54 61 29 33 - - -
27/07:30pm - - - - - ESE 48 57 26 31 - - -
27/07:00pm - - - - - SE 52 59 28 32 - - -
27/06:30pm - - - - - SE 46 54 25 29 - - -
27/06:00pm - - - - - SE 46 57 25 31 - - -
27/05:30pm - - - - - SE 37 50 20 27 - - -
27/05:00pm - - - - - SE 26 32 14 17 - - -
27/04:30pm - - - - - SSE 30 35 16 19 - - -
27/04:00pm - - - - - SSE 30 37 16 20 - - -
27/03:30pm - - - - - SSE 26 32 14 17 - - -
27/03:00pm - - - - - SSE 26 35 14 19 - - -
27/02:30pm - - - - - SSE 30 35 16 19 - - -
27/02:00pm - - - - - SE 28 33 15 18 - - -
27/01:30pm - - - - - SE 24 32 13 17 - - -
27/01:00pm - - - - - SE 24 30 13 16 - - -
27/12:30pm - - - - - SE 22 30 12 16 - - -
27/12:00pm - - - - - SE 26 32 14 17 - - -
27/11:30am - - - - - SSE 26 33 14 18 - - -
27/11:00am - - - - - SSE 30 33 16 18 - - -
27/10:30am - - - - - SSE 28 44 15 24 - - -
27/10:00am - - - - - SSE 32 39 17 21 - - -
27/09:30am - - - - - SSE 32 43 17 23 - - -
27/09:00am - - - - - SSE 30 37 16 20 - - -
27/08:30am - - - - - SSE 33 41 18 22 - - -
27/08:00am - - - - - SSE 33 39 18 21 - - -
27/07:30am - - - - - SE 28 33 15 18 - - -
27/07:00am - - - - - SSE 30 35 16 19 - - -
27/06:30am - - - - - SSE 33 39 18 21 - - -
27/06:00am - - - - - SSE 30 39 16 21 - - -
27/05:30am - - - - - SSE 30 37 16 20 - - -
27/05:00am - - - - - SE 24 30 13 16 - - -
27/04:30am - - - - - SSE 28 35 15 19 - - -
27/04:00am - - - - - SSE 30 37 16 20 - - -
27/03:30am - - - - - S 32 41 17 22 - - -
27/03:00am - - - - - S 33 41 18 22 - - -
27/02:30am - - - - - S 35 44 19 24 - - -
27/02:00am - - - - - SSE 37 46 20 25 - - -
27/01:30am - - - - - S 37 46 20 25 - - -
27/01:00am - - - - - S 37 44 20 24 - - -
27/12:30am - - - - - S 37 46 20 25 - - -
27/12:00am - - - - - S 37 44 20 24 - - -
 
Date/Time
EDT
Temp
°C
App
Temp
°C
Dew
Point
°C
Rel
Hum
%
Delta-T
°C
Wind Press
QNH
hPa
Press
MSL
hPa
Rain since
9am
mm
Dir  Spd
km/h
Gust
km/h
Spd
kts
Gust
kts
26/11:30pm - - - - - S 39 48 21 26 - - -
26/11:00pm - - - - - S 35 41 19 22 - - -
26/10:30pm - - - - - S 35 39 19 21 - - -
26/10:00pm - - - - - S 35 41 19 22 - - -
26/09:30pm - - - - - S 35 41 19 22 - - -
26/09:00pm - - - - - S 37 44 20 24 - - -
26/08:30pm - - - - - S 37 43 20 23 - - -
26/08:00pm - - - - - S 35 41 19 22 - - -
26/07:30pm - - - - - S 35 41 19 22 - - -
26/07:00pm - - - - - S 39 48 21 26 - - -
26/06:30pm - - - - - S 41 52 22 28 - - -
26/06:00pm - - - - - S 43 52 23 28 - - -
26/05:30pm - - - - - SSW 46 54 25 29 - - -
26/05:00pm - - - - - SSW 46 56 25 30 - - -
26/04:30pm - - - - - SSW 41 48 22 26 - - -
26/04:00pm - - - - - SSW 39 50 21 27 - - -
26/03:30pm - - - - - SSW 37 44 20 24 - - -
26/03:00pm - - - - - SSW 35 43 19 23 - - -
26/02:30pm - - - - - SSW 35 41 19 22 - - -
26/02:00pm - - - - - SSW 35 41 19 22 - - -
26/01:30pm - - - - - SSW 35 48 19 26 - - -
26/01:00pm - - - - - SSW 35 44 19 24 - - -
26/12:30pm - - - - - SSW 30 37 16 20 - - -
26/12:00pm - - - - - SSW 33 39 18 21 - - -
26/11:30am - - - - - SSW 41 50 22 27 - - -
26/11:00am - - - - - SSW 39 46 21 25 - - -
26/10:30am - - - - - SSW 41 50 22 27 - - -
26/10:00am - - - - - SSW 37 43 20 23 - - -
26/09:30am - - - - - SSW 35 41 19 22 - - -
26/09:00am - - - - - SSW 35 41 19 22 - - -
26/08:30am - - - - - SSW 35 41 19 22 - - -
26/08:00am - - - - - SSW 37 43 20 23 - - -
26/07:30am - - - - - SSW 37 44 20 24 - - -
26/07:00am - - - - - SSW 39 44 21 24 - - -
26/06:30am - - - - - S 37 43 20 23 - - -
26/06:00am - - - - - S 35 41 19 22 - - -
26/05:30am - - - - - SSW 39 46 21 25 - - -
26/05:00am - - - - - S 33 37 18 20 - - -
26/04:30am - - - - - S 32 35 17 19 - - -
26/04:00am - - - - - SSW 33 41 18 22 - - -
26/03:54am - - - - - SSW 32 37 17 20 - - -
26/03:30am - - - - - SSW 17 19 9 10 - - -
26/03:00am - - - - - E 11 13 6 7 - - -
26/02:30am - - - - - NE 11 17 6 9 - - -
26/02:00am - - - - - N 11 13 6 7 - - -
26/01:30am - - - - - NNW 15 17 8 9 - - -
26/01:00am - - - - - N 15 17 8 9 - - -
26/12:30am - - - - - N 17 19 9 10 - - -
26/12:00am - - - - - NNE 15 19 8 10 - - -
 
Date/Time
EDT
Temp
°C
App
Temp
°C
Dew
Point
°C
Rel
Hum
%
Delta-T
°C
Wind Press
QNH
hPa
Press
MSL
hPa
Rain since
9am
mm
Dir  Spd
km/h
Gust
km/h
Spd
kts
Gust
kts
25/11:30pm - - - - - NNE 22 28 12 15 - - -
25/11:00pm - - - - - NE 7 11 4 6 - - -
25/10:30pm - - - - - CALM 0 7 0 4 - - -
25/10:00pm - - - - - S 19 24 10 13 - - -
25/09:30pm - - - - - SSW 20 26 11 14 - - -
25/09:00pm - - - - - SSW 22 28 12 15 - - -
25/08:30pm - - - - - SW 32 35 17 19 - - -
25/08:00pm - - - - - SSW 20 26 11 14 - - -
25/07:30pm - - - - - S 19 20 10 11 - - -
25/07:00pm - - - - - S 28 32 15 17 - - -
25/06:30pm - - - - - SSW 35 41 19 22 - - -
25/06:00pm - - - - - SSW 37 46 20 25 - - -
25/05:30pm - - - - - SSW 33 41 18 22 - - -
25/05:00pm - - - - - SSW 32 35 17 19 - - -
25/04:30pm - - - - - SW 37 41 20 22 - - -
25/04:00pm - - - - - SSW 32 37 17 20 - - -
25/03:30pm - - - - - SSW 28 33 15 18 - - -
25/03:00pm - - - - - S 26 30 14 16 - - -
25/02:30pm - - - - - SSW 28 32 15 17 - - -
25/02:00pm - - - - - SSW 30 33 16 18 - - -
25/01:30pm - - - - - SSW 35 37 19 20 - - -
25/01:00pm - - - - - SSW 41 48 22 26 - - -
25/12:57pm - - - - - SSW 41 48 22 26 - - -
25/12:30pm - - - - - S 28 35 15 19 - - -
25/12:00pm - - - - - SSW 35 39 19 21 - - -
25/11:30am - - - - - SSW 15 28 8 15 - - -
25/11:00am - - - - - NNW 13 17 7 9 - - -
25/10:30am - - - - - NW 17 26 9 14 - - -
25/10:00am - - - - - NW 26 35 14 19 - - -
25/09:30am - - - - - NW 24 32 13 17 - - -
25/09:12am - - - - - N 30 41 16 22 - - -
25/09:00am - - - - - N 39 41 21 22 - - -
25/08:30am - - - - - N 43 48 23 26 - - -
25/08:00am - - - - - N 44 50 24 27 - - -
25/07:30am - - - - - N 50 54 27 29 - - -
25/07:00am - - - - - N 37 41 20 22 - - -
25/06:30am - - - - - N 32 35 17 19 - - -
25/06:00am - - - - - NNE 32 35 17 19 - - -
25/05:30am - - - - - NNE 32 35 17 19 - - -
25/05:00am - - - - - NNE 32 33 17 18 - - -
25/04:30am - - - - - NNE 24 28 13 15 - - -
25/04:00am - - - - - NE 24 26 13 14 - - -
25/03:30am - - - - - NE 26 28 14 15 - - -
25/03:00am - - - - - NE 24 26 13 14 - - -
25/02:30am - - - - - NE 22 26 12 14 - - -
25/02:00am - - - - - NE 22 24 12 13 - - -
25/01:30am - - - - - NE 20 24 11 13 - - -
25/01:00am - - - - - ENE 28 30 15 16 - - -

Latest Capital City Observations: Canberra | Sydney | Melbourne | Brisbane | Adelaide | Perth | Hobart | Darwin

Other formats

Comma delimited format used in spreadsheet applications
http://www.bom.gov.au/fwo/IDV60901/IDV60901.94853.axf

JavaScript Object Notation format (JSON) in row-major order
http://www.bom.gov.au/fwo/IDV60901/IDV60901.94853.json

Data quality

Most of these data are generated automatically and are frequently updated. Quality checks on data are not normally performed. It is possible for incorrect values to appear. Refer to information at About Latest Weather Observations and please check the disclaimer before using these data.